Date,TemperatureHighF,TemperatureAvgF,TemperatureLowF,DewpointHighF,DewpointAvgF,DewpointLowF,HumidityHigh,HumidityAvg,HumidityLow,PressureMaxIn,PressureMinIn,WindSpeedMaxMPH,WindSpeedAvgMPH,GustSpeedMaxMPH,PrecipitationSumIn
2014-1-1,61.2,51.8,46.2,50.7,45.2,41.9,86,79,66,30.20,30.06,4,2,6,0.00
2014-1-2,58.5,52.2,43.5,52.9,47.5,40.6,90,84,78,30.17,30.06,7,3,12,2.19
2014-1-3,64.0,59.0,54.1,57.2,54.0,50.9,91,84,74,30.23,30.09,7,2,9,0.00
2014-1-4,63.3,60.8,56.7,59.9,57.1,52.7,91,88,80,30.23,29.97,12,4,18,0.00
2014-1-5,63.5,58.1,52.2,59.7,53.8,47.3,93,86,74,29.97,29.70,16,7,22,0.00
2014-1-6,64.2,54.2,47.1,52.3,48.3,43.7,88,81,64,30.26,29.85,6,2,6,0.00
2014-1-7,62.4,53.8,47.1,55.0,49.2,43.7,90,85,71,30.38,30.23,5,2,6,0.00
2014-1-8,61.3,52.4,45.3,54.7,48.0,42.8,92,85,76,30.41,30.32,6,2,6,0.00
2014-1-9,56.3,49.9,43.0,50.0,46.0,40.5,92,87,78,30.35,30.23,5,2,6,0.00
2014-1-10,58.1,55.4,52.0,52.5,50.4,48.4,88,84,80,30.26,30.17,31,2,31,0.00
2014-1-11,60.4,52.2,44.6,52.7,47.7,42.1,91,85,75,30.23,30.17,5,2,8,0.00
2014-1-12,59.2,52.6,45.7,51.6,47.9,43.2,92,85,75,30.23,30.15,4,2,6,0.00
2014-1-13,61.0,51.9,43.5,52.5,47.1,40.6,92,84,71,30.20,30.03,5,2,6,0.00
2014-1-14,58.8,56.4,53.1,55.6,51.4,37.2,93,84,55,30.03,29.76,8,2,12,0.00
2014-1-15,61.9,54.2,49.3,54.0,49.3,45.9,89,84,72,30.06,29.79,7,2,11,0.00
2014-1-16,60.6,52.7,45.1,53.8,47.9,41.7,89,84,75,30.15,30.00,6,3,9,0.00
2014-1-17,62.1,59.5,45.1,57.2,54.6,23.4,87,84,42,30.09,29.91,11,6,19,0.00
2014-1-18,61.9,61.9,61.9,56.8,56.8,56.8,84,84,84,29.97,29.97,4,4,4,0.00
2014-1-20,53.2,53.2,53.2,50.4,50.4,50.2,90,90,90,29.53,29.53,3,2,5,0.00
2014-1-21,59.7,55.1,52.2,52.5,50.3,48.9,90,84,73,29.88,29.50,8,2,11,0.00
2014-1-22,57.4,54.2,52.0,53.4,46.7,31.8,90,78,45,30.03,29.82,4,1,8,0.00
2014-1-23,60.3,56.4,50.9,53.1,50.8,46.2,90,82,73,30.06,29.94,7,3,9,0.00
2014-1-24,57.4,53.6,49.3,52.5,49.1,41.2,91,85,74,29.94,29.53,11,4,16,0.00
2014-1-25,55.6,50.9,48.0,40.3,37.9,34.2,72,62,53,29.85,29.53,14,8,20,0.00
2014-1-27,45.9,45.6,45.1,41.9,41.6,41.2,87,86,86,29.47,29.44,3,2,6,0.00
2014-1-28,54.5,46.9,42.6,43.5,40.3,36.1,90,79,63,29.58,29.41,10,2,13,0.00
2014-1-29,55.8,48.2,38.5,51.6,42.8,34.9,90,82,68,29.76,29.58,10,4,15,0.00
2014-1-30,59.7,57.3,54.5,53.8,51.6,49.5,87,82,76,29.82,29.76,16,9,25,0.00
2014-1-31,59.9,56.5,52.5,56.1,53.0,49.6,92,88,80,29.85,29.73,16,5,27,0.00
2014-2-1,59.5,57.5,56.1,56.1,53.8,52.5,89,88,84,29.85,29.76,9,3,11,0.00
2014-2-3,62.6,58.3,55.9,57.9,54.4,52.7,90,87,79,29.97,29.70,9,1,9,0.00
2014-2-4,62.6,57.9,55.2,57.0,54.3,51.6,90,88,81,30.09,29.91,8,2,13,0.00
2014-2-5,55.2,54.3,53.4,51.6,50.8,49.6,90,88,87,30.06,30.00,6,2,6,0.00
2014-2-8,58.5,57.1,56.5,51.3,50.3,49.6,81,78,73,29.94,29.88,6,3,10,0.00
2014-2-9,57.2,56.8,56.7,52.0,51.6,51.3,84,83,81,29.88,29.85,5,4,9,0.00
2014-2-10,62.4,61.8,61.3,57.2,56.5,55.8,86,83,80,29.76,29.70,9,5,11,1.04
2014-2-11,61.5,61.5,61.5,57.2,57.2,57.2,86,86,86,29.76,29.76,5,5,0,0.00
2014-2-13,62.6,55.0,47.5,52.2,48.0,43.7,88,78,63,30.03,29.88,10,3,12,0.00
2014-2-14,68.2,59.8,55.4,54.3,51.3,45.5,87,75,45,30.06,29.79,18,4,18,0.00
2014-2-15,68.5,58.4,49.3,54.5,49.5,44.2,87,74,52,30.15,30.03,10,4,14,0.00
2014-2-16,69.1,61.6,57.0,54.0,49.4,45.9,83,65,53,30.12,30.03,18,6,18,0.00
2014-2-17,68.5,62.5,58.5,55.2,53.2,50.4,85,72,61,30.12,30.00,12,7,17,0.00
2014-2-18,72.9,68.5,60.6,53.8,45.8,38.3,65,45,33,30.15,29.97,13,6,20,0.00
2014-2-19,67.1,61.8,56.8,56.1,51.7,44.1,87,71,44,30.03,29.91,14,7,24,0.00
2014-2-20,58.1,56.1,52.3,53.1,49.8,46.4,89,80,69,30.00,29.88,8,3,12,0.50
2014-2-21,62.2,53.3,46.2,50.4,46.7,42.8,89,79,57,30.00,29.88,10,3,13,0.00
2014-2-22,62.8,55.6,50.9,51.4,47.5,43.0,87,75,56,30.15,29.94,9,3,13,0.02
2014-2-23,59.5,51.2,43.9,45.7,40.7,36.0,86,69,50,30.20,30.09,12,4,15,0.00
2014-2-24,61.5,50.8,43.2,42.4,39.2,35.1,78,66,40,30.20,30.09,9,3,60,0.00
2014-2-25,61.3,51.3,42.3,46.6,42.2,37.8,85,72,52,30.23,30.12,8,2,12,0.00
2014-2-26,58.8,52.6,45.3,49.3,46.1,41.2,86,79,64,30.23,30.17,9,4,13,0.07
2014-2-27,60.4,54.4,49.8,51.4,47.5,43.5,87,78,60,30.23,30.12,10,3,12,0.00
2014-2-28,55.6,50.7,46.9,50.2,45.4,41.5,88,82,77,30.12,29.73,9,3,15,1.04
2014-3-1,55.0,50.4,45.7,47.7,44.7,40.8,89,81,66,29.79,29.47,14,5,22,1.27
2014-3-2,52.2,48.0,44.1,44.1,41.8,39.4,85,79,70,29.64,29.38,9,2,11,0.04
2014-3-3,59.7,50.7,41.9,48.7,43.4,38.5,89,77,54,29.61,29.29,9,3,16,0.37
2014-3-4,57.9,50.7,47.1,47.7,45.2,42.4,90,82,68,29.53,29.20,12,4,14,0.52
2014-3-5,63.5,52.5,42.6,48.9,42.7,38.7,87,71,49,29.85,29.50,9,4,15,0.03
2014-3-6,61.0,55.5,51.4,44.8,42.3,39.6,69,62,53,30.09,29.82,10,4,17,0.00
2014-3-7,67.8,57.3,50.7,46.6,43.2,38.8,72,60,39,30.17,30.00,10,4,16,0.00
2014-3-8,62.1,54.9,49.1,45.1,41.2,38.7,72,61,49,30.32,30.12,10,4,15,0.00
2014-3-9,67.3,56.5,48.6,46.6,39.2,34.0,70,54,31,30.32,30.17,8,3,13,0.00
2014-3-10,63.0,54.4,48.7,46.6,40.4,34.3,78,60,36,30.17,30.00,10,4,13,0.00
2014-3-11,59.4,53.9,48.6,45.3,41.3,36.9,74,63,49,30.29,30.03,31,2,31,0.00
2014-3-12,64.0,53.6,44.6,43.3,36.8,25.3,70,55,24,30.41,30.29,9,2,12,0.00
2014-3-13,66.0,54.9,43.0,45.3,40.7,35.6,76,60,39,30.41,30.29,8,3,12,0.00
2014-3-14,53.6,49.8,45.9,40.6,39.5,38.1,75,68,60,30.29,30.26,4,3,6,0.00
2014-3-16,56.3,55.5,53.4,52.0,51.4,49.6,87,86,85,30.15,30.12,3,1,4,0.00
2014-3-17,64.6,58.9,51.6,52.9,50.4,46.9,88,74,64,30.17,30.09,8,5,10,0.00
2014-3-18,64.6,64.3,55.2,52.5,52.5,51.3,88,66,65,30.23,30.17,8,8,10,0.00
2014-3-19,65.5,58.2,54.0,54.9,51.6,49.1,88,80,67,30.26,30.17,8,2,17,0.00
2014-3-20,71.8,59.9,50.7,57.2,51.9,47.3,89,76,55,30.29,30.20,11,2,11,0.00
2014-3-21,68.9,60.0,52.2,55.6,52.3,48.0,88,77,55,30.23,30.12,12,2,62,0.00
2014-3-22,64.4,59.8,34.0,56.8,54.1,30.2,87,82,72,30.15,29.94,11,4,80,0.00
2014-3-23,61.7,57.7,53.8,57.6,51.3,42.8,90,80,64,29.97,29.73,38,7,38,0.24
2014-3-24,57.7,52.1,46.4,44.8,42.5,39.9,84,70,55,29.91,29.70,12,2,23,0.16
2014-3-25,56.8,48.3,41.5,45.1,42.2,38.3,89,80,56,29.91,29.73,8,1,12,0.11
2014-3-26,59.4,52.8,46.2,48.4,45.2,41.9,89,76,61,29.79,29.67,6,0,8,0.02
2014-3-27,55.0,52.2,48.7,48.2,46.2,44.2,88,80,70,29.76,29.53,25,3,25,0.24
2014-3-28,63.3,54.6,46.6,49.8,45.9,41.9,86,73,57,30.12,29.70,14,4,21,0.00
2014-3-29,67.6,58.2,49.5,52.9,47.8,42.8,84,69,53,30.17,30.09,9,2,12,0.00
2014-3-30,69.3,59.5,51.3,51.4,48.5,44.2,83,69,44,30.17,30.06,8,3,29,0.00
2014-3-31,68.0,58.3,49.1,52.0,48.8,44.4,87,72,49,30.12,29.97,31,4,31,0.00
2014-4-1,67.5,57.5,47.7,55.2,49.4,43.3,86,76,46,30.12,30.00,18,3,62,0.00
2014-4-2,67.1,59.2,51.3,54.1,51.5,47.3,87,77,55,30.09,29.97,8,2,10,0.00
2014-4-3,71.4,60.6,51.1,54.1,48.4,39.2,86,67,39,30.00,29.70,10,3,15,0.00
2014-4-4,66.7,61.4,56.8,56.3,51.0,40.1,88,70,47,29.70,29.55,16,3,25,0.70
2014-4-5,63.0,57.0,52.5,54.5,51.2,48.2,87,81,67,29.85,29.70,6,1,8,0.00
2014-4-6,73.9,62.2,52.9,54.5,49.4,45.9,83,64,42,30.03,29.82,10,3,12,0.00
2014-4-7,75.4,64.4,55.9,57.2,52.6,48.0,83,67,43,30.15,29.97,10,4,62,0.00
2014-4-8,73.0,63.6,55.9,60.3,55.3,50.7,84,75,59,30.17,30.06,9,2,12,0.00
2014-4-9,70.0,63.0,58.6,58.8,54.8,44.8,87,75,54,30.15,29.97,10,2,15,0.00
2014-4-10,66.2,60.3,54.0,52.3,46.5,40.3,78,61,48,30.17,30.06,11,3,14,0.00
2014-4-11,67.8,59.8,50.4,55.0,50.8,44.4,85,73,57,30.12,30.03,9,3,13,0.00
2014-4-12,66.9,60.4,54.3,56.5,53.8,50.2,87,79,67,30.09,29.97,9,2,12,0.00
2014-4-13,68.5,61.2,55.9,57.0,54.2,52.0,88,79,59,30.09,29.97,11,3,14,0.00
2014-4-14,69.6,61.8,53.4,58.3,54.3,49.5,88,77,61,30.12,30.00,12,4,16,0.00
2014-4-15,66.7,58.7,51.4,56.7,50.3,37.8,87,75,50,30.03,29.82,18,4,24,0.27
2014-4-16,59.2,51.4,48.0,39.2,36.8,34.7,62,58,45,30.12,29.94,12,5,17,0.00
2014-4-17,61.3,54.7,47.3,36.9,34.9,30.6,61,48,34,30.12,29.94,17,7,24,0.00
2014-4-18,67.8,56.4,46.4,52.2,43.0,34.0,82,62,41,29.97,29.73,14,5,19,0.00
2014-4-19,60.6,57.5,54.9,55.6,51.9,48.7,87,82,73,29.76,29.67,11,5,17,0.86
2014-4-20,68.7,58.5,50.2,53.4,50.2,46.8,90,76,49,29.79,29.67,8,2,11,0.00
2014-4-21,72.1,62.0,52.7,57.2,52.7,48.0,86,73,54,29.88,29.67,12,3,15,0.00
2014-4-22,74.3,63.7,55.9,60.1,55.6,51.1,85,76,54,29.97,29.85,10,3,15,0.00
2014-4-23,75.2,65.9,60.4,61.7,57.3,51.8,87,75,52,29.97,29.85,7,2,11,0.04
2014-4-24,74.1,66.6,58.3,57.2,53.1,50.2,79,63,49,30.00,29.91,16,5,25,0.00
2014-4-25,75.6,64.8,57.4,58.8,54.5,50.2,84,70,52,29.97,29.82,10,3,14,0.00
2014-4-26,69.4,63.5,59.2,59.2,56.5,54.5,86,79,67,29.88,29.76,12,3,16,0.00
2014-4-27,65.1,60.3,56.3,59.5,55.5,52.3,88,84,69,29.82,29.64,13,3,15,0.37
2014-4-28,67.3,59.8,54.9,56.1,53.4,51.3,90,80,63,29.79,29.61,10,3,15,0.20
2014-4-29,68.0,60.4,52.3,55.4,52.2,48.4,87,75,62,29.88,29.70,11,3,17,0.11
2014-4-30,67.8,61.3,53.8,58.6,54.4,49.6,87,78,68,29.91,29.79,9,3,14,0.00
2014-5-1,70.3,60.9,52.0,55.9,51.9,47.5,85,74,48,29.94,29.79,12,4,15,0.00
2014-5-2,63.9,59.5,55.4,58.5,54.3,51.3,88,83,75,29.91,29.76,9,3,13,0.41
2014-5-3,66.9,58.1,52.5,57.0,52.5,49.3,90,82,65,29.79,29.61,10,2,29,0.55
2014-5-4,68.7,61.0,55.9,52.0,49.3,44.8,84,67,53,29.94,29.64,12,5,21,0.00
2014-5-5,70.7,61.0,51.6,52.0,47.2,42.4,78,61,46,30.12,29.91,12,4,15,0.00
2014-5-6,74.3,63.0,52.2,57.6,53.0,47.3,86,71,46,30.23,30.12,11,3,13,0.00
2014-5-7,72.3,63.4,56.7,58.6,54.8,51.1,90,75,51,30.23,30.12,8,2,29,0.00
2014-5-8,73.0,65.3,57.9,60.1,56.3,52.7,84,74,56,30.15,30.06,11,3,13,0.00
2014-5-9,75.6,65.7,57.0,60.8,55.9,51.8,87,72,53,30.15,30.03,10,3,13,0.00
2014-5-10,64.6,63.5,61.5,58.5,58.2,57.6,87,83,81,30.12,30.09,4,2,4,0.00
2014-5-11,73.6,66.9,62.1,61.3,59.6,56.8,88,78,57,30.12,29.94,12,5,13,0.00
2014-5-12,73.9,67.2,61.5,63.1,58.6,52.3,88,75,49,30.03,29.94,9,4,12,9.46
2014-5-13,70.3,63.4,55.4,61.5,56.1,47.5,85,78,65,30.03,29.82,16,5,20,0.00
2014-5-14,73.0,61.6,52.2,49.6,45.3,33.8,83,58,25,30.09,29.88,19,7,27,1.79
2014-5-15,71.8,62.7,52.7,47.8,40.1,25.9,69,47,19,30.12,29.97,12,4,16,0.00
2014-5-16,68.7,62.5,55.9,53.1,44.0,37.4,70,51,42,30.06,29.91,8,3,13,0.00
2014-5-17,73.0,64.2,57.4,53.8,47.6,42.1,76,56,34,30.15,30.00,12,3,13,0.00
2014-5-18,72.5,63.6,55.4,57.0,52.7,44.1,85,69,37,30.15,30.06,11,4,13,0.00
2014-5-19,69.3,63.4,58.6,56.3,52.9,47.1,85,70,46,30.06,30.00,0,0,0,0.00
2014-5-20,75.2,69.5,62.4,61.2,57.9,53.4,81,67,54,30.15,30.09,0,0,0,0.02
2014-5-21,77.9,67.2,60.4,63.1,58.7,55.8,86,76,52,30.17,30.09,0,0,0,0.00
2014-5-22,79.5,71.0,61.2,61.0,57.8,54.7,82,65,45,30.12,29.97,0,0,0,0.00
2014-5-23,73.6,67.9,63.7,64.2,60.1,56.8,86,77,67,30.09,29.94,0,0,0,0.00
2014-5-24,79.5,70.4,63.1,65.3,59.7,52.3,89,71,44,30.09,30.00,0,0,0,0.00
2014-5-25,81.9,71.1,61.0,63.0,57.8,53.2,78,64,49,30.09,29.94,9,1,12,0.00
2014-5-26,73.6,67.4,59.5,61.2,57.8,50.5,86,72,56,30.06,29.97,11,4,13,0.00
2014-5-27,68.9,65.0,61.0,60.3,57.1,54.7,87,76,64,30.09,30.00,13,4,17,0.00
2014-5-28,71.2,65.2,59.5,58.1,56.0,54.0,83,73,60,30.03,29.91,10,3,13,0.00
2014-5-29,73.9,66.6,61.2,59.4,54.8,46.0,85,68,42,29.97,29.88,15,5,20,0.00
2014-5-30,75.9,67.1,58.8,59.9,56.5,54.3,86,71,50,30.00,29.91,13,3,18,0.00
2014-5-31,73.6,65.3,59.4,60.8,57.0,54.3,84,75,63,30.03,29.91,11,2,15,0.00
2014-6-3,67.6,66.7,65.8,60.8,60.2,59.4,81,80,79,29.94,29.88,2,0,3,0.00
2014-6-4,79.2,70.2,62.4,61.3,57.0,50.2,85,65,37,30.00,29.85,12,4,16,0.00
2014-6-5,77.2,70.2,60.6,62.4,59.8,48.7,85,71,51,30.15,29.97,10,3,12,0.00
2014-6-6,82.2,72.0,61.9,63.1,59.4,55.0,86,67,43,30.15,30.09,9,3,13,0.00
2014-6-7,87.3,74.9,64.6,66.2,57.9,52.9,80,57,37,30.12,30.06,11,4,16,0.00
2014-6-8,90.5,78.1,67.3,66.2,61.2,53.1,75,57,41,30.12,30.06,9,3,13,0.00
2014-6-9,92.8,80.4,72.0,66.0,57.2,44.1,75,48,19,30.15,30.06,11,3,13,0.00
2014-6-10,90.9,81.2,71.6,64.0,59.0,52.2,64,49,28,30.15,30.06,10,3,14,0.00
2014-6-11,82.2,75.9,71.8,68.9,64.7,61.2,82,69,60,30.17,30.06,5,2,8,0.00
2014-6-12,88.3,77.1,72.9,69.4,67.6,65.3,82,74,52,30.17,30.06,5,1,8,0.00
2014-6-14,68.2,67.9,67.6,62.6,62.2,61.9,83,82,82,29.82,29.79,4,2,8,0.00
2014-6-15,76.5,67.3,63.1,65.8,61.4,59.2,88,82,67,29.91,29.76,10,3,13,0.00
2014-6-16,77.5,69.4,60.3,64.2,61.2,55.8,88,76,62,29.94,29.82,22,4,63,0.00
2014-6-17,78.1,72.0,65.3,68.4,64.4,60.6,87,78,63,29.91,29.82,8,2,10,0.33
2014-6-18,72.9,65.8,63.9,65.5,61.5,60.1,88,86,78,29.94,29.85,4,2,10,0.43
2014-6-19,80.8,72.0,63.3,66.0,61.3,57.2,88,70,46,30.00,29.88,17,5,22,0.00
2014-6-20,81.1,73.2,64.2,64.9,61.1,58.1,82,67,50,30.03,29.94,12,3,13,0.00
2014-6-21,81.3,73.7,64.8,67.6,63.9,58.8,82,72,59,30.12,29.97,9,2,12,0.00
2014-6-22,85.1,74.9,66.4,67.6,64.3,52.0,85,71,46,30.23,30.09,12,2,13,0.00
2014-6-23,84.4,75.9,66.9,67.5,61.8,48.2,84,64,41,30.23,30.06,8,2,14,0.00
2014-6-24,86.7,77.5,67.8,67.3,59.8,44.2,76,57,24,30.17,29.88,14,6,20,0.00
2014-6-25,82.8,76.0,71.4,71.1,67.3,64.8,85,75,60,29.97,29.82,12,5,17,0.07
2014-6-26,79.5,73.2,67.3,68.5,64.7,62.6,87,75,58,29.97,29.85,8,2,11,0.81
2014-6-27,82.9,72.7,67.5,67.5,64.7,62.8,86,77,53,30.06,29.94,8,2,13,19.06
2014-6-28,82.9,79.5,73.9,71.2,66.1,63.1,70,64,54,30.12,30.06,11,4,16,0.00
2014-6-29,85.5,77.1,66.9,69.3,63.0,59.0,79,63,43,30.06,29.82,12,4,17,0.00
2014-6-30,81.1,75.8,70.7,69.6,63.3,56.5,85,66,44,30.00,29.79,11,4,16,0.00
2014-7-1,79.7,73.8,67.5,66.7,63.5,61.2,82,71,56,30.15,29.97,11,3,13,0.00
2014-7-2,79.9,71.9,67.5,65.5,62.8,60.8,83,74,54,30.17,30.06,7,1,9,0.00
2014-7-3,88.3,75.3,64.6,63.5,60.3,49.8,80,62,27,30.26,30.17,10,3,15,0.00
2014-7-4,89.6,79.6,70.7,71.2,64.0,57.7,73,60,47,30.20,29.97,10,4,14,0.00
2014-7-5,83.1,77.9,73.9,70.5,66.9,59.9,81,70,57,30.03,29.91,11,4,15,0.00
2014-7-6,88.2,77.8,70.0,69.1,64.5,61.2,76,64,48,30.03,29.97,10,3,13,0.00
2014-7-7,85.8,78.1,71.1,72.0,67.1,64.4,81,70,53,30.09,30.00,11,2,13,0.00
2014-7-9,78.6,74.0,68.9,64.2,61.9,59.0,75,67,53,29.88,29.82,13,7,16,0.00
2014-7-10,76.1,71.2,67.6,61.7,58.2,54.7,76,64,52,29.82,29.70,13,5,16,0.00
2014-7-11,77.9,68.0,61.7,60.4,57.9,56.5,84,71,53,29.85,29.76,4,2,9,0.00
2014-7-12,77.9,77.9,77.9,59.4,59.4,59.4,53,53,53,29.82,29.82,1,1,3,0.00
2014-7-20,80.2,79.9,79.7,66.0,65.1,62.1,63,61,54,30.00,29.94,8,4,9,0.00
2014-7-21,82.6,75.7,70.7,69.1,65.2,55.6,85,71,40,30.03,29.85,14,7,24,0.00
2014-7-22,76.5,71.2,66.7,67.6,64.7,60.8,87,80,71,29.85,29.73,8,2,10,0.00
2014-7-23,83.7,75.1,67.1,69.8,66.0,62.4,86,74,57,29.88,29.79,11,3,14,0.00
2014-7-24,82.4,75.6,72.0,71.8,68.5,66.6,87,79,62,29.97,29.82,11,3,13,0.00
2014-7-25,74.1,73.3,72.7,67.5,67.1,66.6,82,81,80,30.00,29.91,0,0,0,0.00
2014-7-26,84.9,77.1,70.5,72.1,68.2,65.1,85,75,55,29.97,29.79,8,2,12,0.00
2014-7-27,83.1,76.9,71.1,70.7,67.7,64.8,84,74,61,29.91,29.82,12,3,17,0.00
2014-7-28,85.1,76.7,68.5,72.0,68.1,64.0,86,76,62,29.94,29.88,11,3,13,0.00
2014-7-29,82.6,76.7,69.4,72.5,69.4,64.4,85,79,63,29.91,29.70,10,4,16,0.00
2014-7-30,78.6,71.6,65.7,66.0,62.9,59.4,87,75,53,29.79,29.64,10,3,15,0.00
2014-7-31,83.1,73.8,66.0,70.3,65.1,60.6,83,75,62,29.88,29.76,12,3,13,0.00
2014-8-1,86.2,77.8,70.2,72.9,68.8,64.4,85,74,60,29.88,29.79,11,4,14,0.00
2014-8-2,76.8,74.5,73.8,71.4,69.8,69.1,86,85,83,29.91,29.82,7,1,8,0.00
2014-8-4,77.5,76.3,74.8,69.6,69.3,68.5,81,79,76,30.00,29.94,2,1,3,0.00
2014-8-5,87.6,78.9,71.4,69.8,66.6,63.3,82,68,45,29.97,29.88,11,3,16,0.00
2014-8-6,89.8,78.7,68.7,66.4,63.7,60.8,79,62,44,29.91,29.82,12,3,17,0.00
2014-8-7,78.8,73.3,70.0,62.2,59.7,58.5,68,63,55,29.91,29.85,5,3,9,0.00
2014-8-10,88.0,82.9,74.8,72.1,68.0,64.9,79,62,48,30.03,29.97,8,3,12,0.00
2014-8-11,91.4,80.1,70.0,69.3,65.3,53.4,81,64,28,30.03,29.91,9,3,12,0.00
2014-8-12,87.3,79.3,71.6,74.8,69.8,63.5,84,73,66,30.00,29.88,8,2,11,0.00
2014-8-13,77.5,77.5,77.5,72.1,72.1,72.1,84,84,84,29.91,29.91,4,4,4,0.00
2014-8-29,75.2,75.2,75.2,68.5,68.5,68.5,80,80,80,30.00,30.00,0,0,0,0.00
2014-8-30,87.4,78.7,70.3,70.5,67.9,64.2,82,71,52,30.00,29.94,10,3,13,0.00
2014-8-31,84.6,77.3,71.4,72.1,69.4,65.8,84,77,64,30.00,29.79,10,2,13,0.00
2014-9-1,74.7,70.0,63.1,69.1,61.4,54.9,85,75,59,29.82,29.55,18,7,29,0.00
2014-9-2,82.4,72.7,67.5,63.9,59.9,57.6,73,65,52,29.76,29.58,13,7,29,0.00
2014-9-3,81.7,71.6,64.2,64.4,60.5,56.8,78,69,52,29.85,29.73,9,3,12,0.00
2014-9-4,81.7,72.7,64.8,66.2,63.1,59.0,83,73,58,29.91,29.82,10,3,12,1.93
2014-9-5,83.1,74.5,67.5,67.1,64.6,61.7,82,72,57,29.88,29.79,12,3,17,0.00
2014-9-6,83.8,75.7,68.0,67.5,63.7,60.4,77,67,53,29.85,29.76,11,3,15,0.00
2014-9-7,83.8,75.4,67.3,66.4,63.2,59.7,80,67,50,29.94,29.82,12,4,14,0.00
2014-9-8,85.1,75.3,66.7,67.8,65.1,60.6,83,72,50,30.03,29.91,11,3,14,0.00
2014-9-9,85.6,77.5,70.0,70.2,56.7,48.7,82,49,42,30.03,29.94,8,0,0,0.00
2014-9-10,83.8,75.6,69.4,70.9,68.2,55.8,86,79,51,30.00,29.82,11,3,16,0.00
2014-9-11,80.4,73.5,67.8,71.2,67.0,62.8,87,81,69,29.79,29.73,10,2,16,0.00
2014-9-12,81.5,74.3,66.9,70.7,66.7,60.1,86,78,60,29.85,29.73,12,4,15,0.00
2014-9-13,81.3,70.6,60.6,63.0,58.4,53.8,82,67,40,29.97,29.85,9,3,13,0.00
2014-9-14,82.4,71.2,61.9,65.5,60.0,55.4,84,69,46,30.03,29.91,10,3,13,0.00
2014-9-15,79.3,71.6,62.6,67.8,63.6,57.6,85,77,63,30.03,29.91,8,2,11,0.00
2014-9-16,81.9,74.3,68.2,67.5,65.3,63.3,85,75,56,29.97,29.88,9,2,12,0.00
2014-9-17,82.0,73.0,64.8,68.0,64.1,59.4,84,74,60,29.97,29.91,8,2,11,0.00
2014-9-18,72.5,72.5,72.5,66.6,66.6,66.6,82,82,82,29.97,29.97,0,0,0,0.00
2014-9-19,72.5,72.5,72.5,66.6,66.6,66.6,82,82,82,29.97,29.97,0,0,0,0.00
2014-9-20,86.5,78.0,72.5,74.8,70.5,66.6,85,78,66,30.03,29.97,7,2,10,0.00
2014-9-21,84.4,78.3,74.5,75.0,72.2,69.6,86,82,72,30.03,29.91,9,3,12,0.00
2014-9-22,83.1,77.7,74.1,73.8,71.3,69.6,87,81,68,29.91,29.76,10,3,12,0.00
2014-9-23,82.4,74.5,66.2,70.0,62.4,53.4,86,67,52,30.00,29.73,9,3,13,0.00
2014-9-24,77.9,70.1,63.7,64.0,57.4,51.4,83,65,48,30.00,29.94,8,2,11,0.00
2014-9-25,75.4,68.9,63.9,68.0,63.7,60.1,89,84,73,30.03,29.91,5,2,11,0.00
2014-9-26,81.0,70.2,61.9,63.0,56.3,47.3,84,64,31,30.12,30.00,7,3,11,0.00
2014-9-27,82.0,69.7,59.9,63.9,56.3,49.8,79,63,42,30.26,30.12,8,3,11,0.00
2014-9-28,78.1,70.1,62.1,65.3,59.9,53.6,79,70,59,30.29,30.23,9,3,12,0.00
2014-9-29,80.1,70.4,62.6,66.0,61.6,58.3,87,74,56,30.35,30.29,9,2,11,0.00
2014-9-30,79.3,70.7,62.2,63.3,60.6,57.0,86,72,49,30.32,30.26,7,2,12,0.00
2014-10-1,79.3,69.8,63.0,66.7,62.4,57.6,88,78,62,30.29,30.12,10,3,11,0.00
2014-10-2,77.4,69.2,65.7,69.4,64.3,61.5,89,85,72,30.17,30.06,11,2,12,0.00
2014-10-3,81.1,70.7,63.7,66.6,62.9,59.4,88,78,57,30.15,30.03,10,2,12,0.00
2014-10-4,80.1,69.7,61.9,66.0,61.5,56.8,86,76,58,30.03,29.91,9,3,13,0.00
2014-10-5,67.5,65.3,61.0,61.7,58.2,55.8,85,78,74,29.94,29.88,5,3,9,0.00
2014-10-6,79.7,69.0,61.3,63.0,59.7,55.8,83,74,52,29.97,29.88,9,2,12,0.00
2014-10-7,66.6,62.5,59.9,60.8,57.9,55.6,86,85,82,30.00,29.97,5,3,6,0.00
2014-11-12,60.1,60.0,59.9,56.7,56.5,56.3,89,88,88,29.67,29.64,4,2,6,0.00
2014-11-13,68.7,62.5,59.4,63.0,58.3,55.9,90,87,77,29.88,29.61,7,2,10,0.00
2014-11-14,73.2,63.0,55.9,62.4,57.6,52.7,90,83,65,29.94,29.88,5,1,8,0.00
2014-11-15,69.3,63.6,57.0,62.8,59.2,53.8,90,86,78,29.94,29.70,11,4,20,0.00
2014-11-16,72.3,64.8,58.5,62.4,58.3,54.7,89,80,64,29.82,29.76,8,3,19,0.00
2014-11-17,69.4,63.6,57.7,63.3,58.9,54.5,90,85,77,29.85,29.67,13,5,18,0.00
2014-11-18,69.8,65.1,61.2,59.7,57.7,56.1,87,78,67,29.91,29.73,12,4,16,0.00
2014-11-19,63.9,63.7,63.5,57.6,57.4,57.2,80,80,80,29.91,29.88,4,3,4,0.00
2014-11-21,55.9,54.9,54.5,49.8,49.4,49.3,83,82,80,30.23,30.20,4,3,6,0.00
2014-11-22,70.2,59.6,50.7,58.5,52.4,46.0,86,78,65,30.29,30.17,5,2,6,0.00
2014-11-23,68.5,62.7,56.8,60.6,56.9,53.2,88,82,74,30.29,30.23,4,1,5,0.00
2014-11-24,71.2,61.8,55.9,61.9,56.1,52.0,88,82,70,30.26,30.17,5,2,6,0.00
2014-11-25,69.4,61.2,55.2,60.8,55.9,51.6,89,83,72,30.17,30.06,5,2,9,0.00
2014-11-26,64.9,61.9,58.6,60.8,58.1,54.7,90,88,86,30.09,29.94,5,2,8,0.00
2014-11-27,73.4,68.3,61.3,66.6,63.3,58.3,90,85,79,29.97,29.91,8,3,12,0.00
2014-11-28,73.0,73.0,73.0,66.4,66.4,66.4,80,80,80,29.91,29.91,3,3,8,0.00
2014-11-29,73.0,73.0,73.0,66.4,66.4,66.4,80,80,80,29.91,29.91,3,3,8,0.00
2014-12-1,70.7,66.5,58.1,64.6,60.2,53.4,87,81,67,29.64,29.53,13,5,21,0.00
2014-12-2,65.7,60.1,55.8,57.6,55.1,52.2,90,84,75,29.61,29.53,12,3,16,0.00
2014-12-3,66.9,61.5,57.2,62.2,57.5,54.0,90,87,83,29.82,29.53,13,6,20,0.67
2014-12-4,69.1,60.7,57.4,63.0,56.7,54.1,89,87,80,29.94,29.82,11,2,13,0.68
2014-12-5,62.4,59.9,57.9,58.5,56.3,54.1,89,88,86,29.94,29.88,8,2,12,0.11
2014-12-6,68.0,62.5,58.8,61.0,56.4,54.5,90,81,68,29.94,29.88,11,4,14,0.15
2014-12-7,67.5,59.6,53.8,57.9,53.8,50.0,88,82,69,29.94,29.85,4,1,8,0.00
2014-12-8,53.6,51.0,48.9,50.0,47.6,45.7,90,89,88,29.91,29.88,4,2,6,0.00
2014-12-10,47.8,47.8,47.8,39.6,39.6,39.6,73,73,73,30.06,30.06,6,6,6,0.00
2014-12-11,61.5,51.0,45.0,49.5,42.6,38.1,79,73,62,30.09,29.97,6,2,10,0.00
2014-12-12,48.2,44.1,42.1,41.9,38.7,37.0,84,81,78,30.15,30.09,7,3,9,0.00
2014-12-13,44.4,44.4,44.4,38.8,38.8,38.8,81,81,81,30.15,30.15,3,3,5,0.00
2014-12-14,59.5,59.5,59.5,52.2,52.2,52.2,77,77,77,30.17,30.17,2,2,3,0.00
2014-12-15,62.8,59.2,57.9,55.2,53.1,51.1,87,80,73,30.17,30.00,6,3,11,0.22
2014-12-16,63.0,57.2,54.9,55.6,53.1,51.3,90,87,75,30.00,29.82,9,4,12,0.53
2014-12-17,55.6,55.6,55.6,52.5,52.5,52.5,90,90,90,29.82,29.82,4,4,4,0.53
2014-12-18,55.6,55.6,55.6,52.5,52.5,52.5,90,90,90,29.82,29.82,4,4,4,2.89
2014-12-19,55.6,55.6,55.6,52.5,52.5,52.5,90,90,90,29.82,29.82,4,4,4,5.24
2014-12-20,55.6,55.6,55.6,52.5,52.5,52.5,90,90,90,29.82,29.82,4,4,4,5.25